Saturn, Texas
Current Conditions -  °F | °C
As of 7:15 PM on Monday 20 Oct 2014 (Local Time) from KT20 Reporting Station
Clear Clear  
Wind Chill: 25°   Ceiling: Unl
Heat Index: 26°   Visibility: 10mi
Dew Point: 16°   Wind: 5mph
Humidity: 57%   Direction: 70°ENE
Pressure: 29.98"   Gusts: NA
Location:  29.6608°N, 97.4854°W
Report Text: KT20 210015Z AUTO 07004KT 10SM CLR 25/16 A2998 RMK AO2 T02500160
Loading
Personal Weather Stations






























Interactive Weather Map
Tropical Storm Tracking
New forecast layout! Learn more

10-Day Weather Forecast

Advertisements
Track Severe Weather on mobile